Terminal Aerodrome Forecast
Issued by NWS Des Moines, IA

Home | Current Version | Previous Version | Text Only | Print | Product List | Glossary On
Versions: 1 2 3 4 5 6 7 8 9 10 11 12 13 14 15 16 17 18 19 20 21 22 23 24 25 26 27 28 29 30 31 32 33 34 35 36 37 38 39 40 41 42 43 44 45 46 47 48 49 50
000
FTUS43 KDMX 220526
TAFDSM
TAF
KDSM 220526Z 2206/2306 06009KT P6SM BKN080 BKN100
     FM221200 07007KT 5SM -SN OVC029
     FM221600 08008KT 2SM -FZDZSN BR OVC009
     FM221700 10008KT 3SM -FZRASN OVC011
     FM221900 10008KT 5SM -FZDZ OVC008
     FM230100 13007KT 1SM -RA OVC004=

USA.gov is the U.S. government's official web portal to all federal, state and local government web resources and services.